Kezdőlap
METAR-TAF:

METAR-TAF

Repülőterek :

Karácsony-sziget, Ausztrália

földrajzi szélesség: 10-26S, földrajzi hosszúság: 105-41E, magasság: 279 m

Jelenlegi meteorológiai megfigyelések

A jelentés 40 perccel ezelõtt készült, 02:00 UTC
Kelet-délkeleti szél 14 kt
Hőmérséklet 26°C
Páratartalom 74%
Légköri nyomás 1015 hPa
Látótávolság 10 km, vagy több
Kevés felhő 2000 lábon

METAR: YPXM 220200Z AUTO 11014KT 9999 // FEW020 26/21 Q1015 RF00.0/000.0

Idő: 09:40 (02:40 UTC)

Előrejelzés

A jelentés 3 órával és 37 perccel ezelõtt készült, 23:03 UTC
Az előrejelzés 21-én 23 óra UTC és 23-én 00 óra UTC között érvényes
Kelet-délkeleti szél 14 kt
Látótávolság 10 km, vagy több
Szakadozott felhőzet 1600 lábon
22-én 1200 órától UTC szerint
Keleti szél 14 kt
Látótávolság 10 km, vagy több
Szakadozott felhőzet 1400 lábon

TAF: YPXM 212303Z 2123/2300 11014KT 9999 BKN016 FM221200 10014KT 9999 BKN014

Meteorológiai megfigyelések és előrejelzések több, mint 4000 repülőtéren (METAR és TAF jelentéseket).

A térképen piros és sárga pontok jelzik az elérhető meteorológiai állomásokat.

Mozgassa az egeret a pont fölött, hogy megjelenjen az állomás neve.

Azután kattintson az időjárási megfigyelések és előrejelzések megtekintéséhez.

A térkép megváltoztatása: kattintson a fekete keresztel jelölt zöld gombra ráközelítéshez, a vonallal jelölt zöld gombra távolításhoz, vagy a zöld nyilakra a szomszédos térképek eléréséhez.


METAR-TAF: